UTST

Termez Airport

Termez, Uzbekistan
TAF UTST 171100Z 1712/1812 VRB06KT 6000 SCT050CB BKN100 TEMPO 1712/1718 09008G18KT 1500 BR FU TEMPO 1718/1804 0200 FG VV001
Issued Valid From Valid To
Dec-17 @ 11:00 UTC
(an hour ago)
Dec-17 @ 12:00 UTC
(14 minutes ago)
Dec-18 @ 12:00 UTC
(in 24 hours)
Dec-17 @ 12:00 to Dec-18 @ 12:00
TAF UTST 171100Z 1712/1812 VRB06KT 6000 SCT050CB BKN100
Wind Visibility Clouds
Variable at 6 knots 6,003 meters
  • Scattered at 5,000' AGL
  • Broken at 10,000' AGL
Temporary Dec-17 @ 12:00 to Dec-17 @ 18:00
TEMPO 1712/1718 09008G18KT 1500 BR FU
Wind Visibility Conditions
90° at 8 knots
 Gusting to 18 knots
1,497 meters
  • Mist
  • Smoke
Temporary Dec-17 @ 18:00 to Dec-18 @ 04:00
TEMPO 1718/1804 0200 FG VV001
Visibility Clouds Conditions
193 meters
  • Vertical visibility at 100' AGL
  • Fog
TAF UTST 171100Z 1712/1812 VRB06KT 6000 SCT050CB BKN100 TEMPO 1712/1718 09008G18KT 1500 BR FU TEMPO 1718/1804 0200 FG VV001
Issued Dec-17 @ 11:00 UTC
(an hour ago)
Valid From Dec-17 @ 12:00 UTC
(14 minutes ago)
Valid To Dec-18 @ 12:00 UTC
(in 24 hours)
Dec-17 @ 12:00 - Dec-18 @ 12:00
Wind Visibility
Variable at 6 knots 6,003 meters
Clouds
  • Scattered at 5,000' AGL
  • Broken at 10,000' AGL
Temporary Dec-17 @ 12:00 - Dec-17 @ 18:00
Wind Visibility
90° at 8 knots
 Gusting to 18 knots
1,497 meters
Conditions
  • Mist
  • Smoke
Temporary Dec-17 @ 18:00 - Dec-18 @ 04:00
Clouds
  • Vertical visibility at 100' AGL
Conditions
  • Fog